sensor_id;sensor_type;location;lat;lon;timestamp;pressure;altitude;pressure_sealevel;temperature;humidity
19210;BME280;9738;51.654;14.238;2022-10-16T00:01:12;100211.03;;;15.07;100.00
19210;BME280;9738;51.654;14.238;2022-10-16T00:03:39;100208.34;;;15.07;100.00
19210;BME280;9738;51.654;14.238;2022-10-16T00:06:05;100209.84;;;15.09;100.00
19210;BME280;9738;51.654;14.238;2022-10-16T00:08:31;100213.81;;;15.13;100.00
19210;BME280;9738;51.654;14.238;2022-10-16T00:11:06;100215.88;;;15.11;100.00
19210;BME280;9738;51.654;14.238;2022-10-16T00:13:34;100213.38;;;15.10;100.00
19210;BME280;9738;51.654;14.238;2022-10-16T00:16:01;100226.19;;;15.08;100.00
19210;BME280;9738;51.654;14.238;2022-10-16T00:18:28;100227.00;;;15.08;100.00
19210;BME280;9738;51.654;14.238;2022-10-16T00:20:55;100239.63;;;15.08;100.00
19210;BME280;9738;51.654;14.238;2022-10-16T00:23:21;100231.72;;;15.06;100.00
19210;BME280;9738;51.654;14.238;2022-10-16T00:26:03;100230.69;;;15.07;100.00
19210;BME280;9738;51.654;14.238;2022-10-16T00:28:30;100233.38;;;15.07;100.00
19210;BME280;9738;51.654;14.238;2022-10-16T00:30:56;100223.28;;;15.09;100.00
19210;BME280;9738;51.654;14.238;2022-10-16T00:33:22;100234.78;;;15.03;100.00
19210;BME280;9738;51.654;14.238;2022-10-16T00:35:49;100231.44;;;15.01;100.00
19210;BME280;9738;51.654;14.238;2022-10-16T00:38:16;100227.28;;;14.99;100.00
19210;BME280;9738;51.654;14.238;2022-10-16T00:40:42;100231.44;;;15.01;100.00
19210;BME280;9738;51.654;14.238;2022-10-16T00:43:13;100243.41;;;14.99;100.00
19210;BME280;9738;51.654;14.238;2022-10-16T00:45:40;100241.34;;;15.01;100.00
19210;BME280;9738;51.654;14.238;2022-10-16T00:48:10;100236.16;;;14.99;100.00
19210;BME280;9738;51.654;14.238;2022-10-16T00:50:38;100240.72;;;14.99;100.00
19210;BME280;9738;51.654;14.238;2022-10-16T00:53:05;100231.81;;;14.98;100.00
19210;BME280;9738;51.654;14.238;2022-10-16T00:55:31;100235.06;;;14.94;100.00
19210;BME280;9738;51.654;14.238;2022-10-16T00:57:57;100235.44;;;14.91;100.00
19210;BME280;9738;51.654;14.238;2022-10-16T01:00:25;100231.63;;;14.85;100.00
19210;BME280;9738;51.654;14.238;2022-10-16T01:02:56;100227.63;;;14.81;100.00
19210;BME280;9738;51.654;14.238;2022-10-16T01:05:25;100230.69;;;14.78;100.00
19210;BME280;9738;51.654;14.238;2022-10-16T01:10:51;100235.78;;;14.73;100.00
19210;BME280;9738;51.654;14.238;2022-10-16T01:13:25;100230.41;;;14.73;100.00
19210;BME280;9738;51.654;14.238;2022-10-16T01:15:59;100230.13;;;14.68;100.00
19210;BME280;9738;51.654;14.238;2022-10-16T01:18:46;100235.03;;;14.64;100.00
19210;BME280;9738;51.654;14.238;2022-10-16T01:21:25;100239.72;;;14.62;100.00
19210;BME280;9738;51.654;14.238;2022-10-16T01:24:15;100240.94;;;14.59;100.00
19210;BME280;9738;51.654;14.238;2022-10-16T01:27:21;100251.50;;;14.61;100.00
19210;BME280;9738;51.654;14.238;2022-10-16T01:29:57;100246.97;;;14.62;100.00
19210;BME280;9738;51.654;14.238;2022-10-16T01:35:04;100250.69;;;14.60;100.00
19210;BME280;9738;51.654;14.238;2022-10-16T01:37:37;100252.81;;;14.65;100.00
19210;BME280;9738;51.654;14.238;2022-10-16T01:40:09;100243.94;;;14.65;100.00
19210;BME280;9738;51.654;14.238;2022-10-16T01:42:42;100252.63;;;14.67;100.00
19210;BME280;9738;51.654;14.238;2022-10-16T01:45:13;100254.97;;;14.70;100.00
19210;BME280;9738;51.654;14.238;2022-10-16T01:47:41;100258.94;;;14.74;100.00
19210;BME280;9738;51.654;14.238;2022-10-16T01:50:09;100254.06;;;14.77;100.00
19210;BME280;9738;51.654;14.238;2022-10-16T01:52:37;100253.88;;;14.79;100.00
19210;BME280;9738;51.654;14.238;2022-10-16T01:55:06;100257.19;;;14.81;100.00
19210;BME280;9738;51.654;14.238;2022-10-16T01:57:36;100257.88;;;14.83;100.00
19210;BME280;9738;51.654;14.238;2022-10-16T02:00:07;100254.81;;;14.86;100.00
19210;BME280;9738;51.654;14.238;2022-10-16T02:02:35;100259.81;;;14.89;100.00
19210;BME280;9738;51.654;14.238;2022-10-16T02:07:48;100267.03;;;14.88;100.00
19210;BME280;9738;51.654;14.238;2022-10-16T02:10:15;100266.88;;;14.90;100.00
19210;BME280;9738;51.654;14.238;2022-10-16T02:12:45;100267.31;;;14.94;100.00
19210;BME280;9738;51.654;14.238;2022-10-16T02:15:13;100269.84;;;14.95;100.00
19210;BME280;9738;51.654;14.238;2022-10-16T02:17:38;100262.63;;;14.96;100.00
19210;BME280;9738;51.654;14.238;2022-10-16T02:20:05;100273.47;;;15.02;100.00
19210;BME280;9738;51.654;14.238;2022-10-16T02:22:44;100278.13;;;15.08;100.00
19210;BME280;9738;51.654;14.238;2022-10-16T02:25:31;100267.81;;;15.12;100.00
19210;BME280;9738;51.654;14.238;2022-10-16T02:28:09;100271.81;;;15.16;100.00
19210;BME280;9738;51.654;14.238;2022-10-16T02:30:42;100278.22;;;15.15;100.00
19210;BME280;9738;51.654;14.238;2022-10-16T02:33:11;100282.38;;;15.18;100.00
19210;BME280;9738;51.654;14.238;2022-10-16T02:35:41;100272.44;;;15.18;100.00
19210;BME280;9738;51.654;14.238;2022-10-16T02:38:09;100273.75;;;15.22;100.00
19210;BME280;9738;51.654;14.238;2022-10-16T02:40:36;100274.19;;;15.26;100.00
19210;BME280;9738;51.654;14.238;2022-10-16T02:43:04;100278.19;;;15.30;100.00
19210;BME280;9738;51.654;14.238;2022-10-16T02:45:30;100280.69;;;15.31;100.00
19210;BME280;9738;51.654;14.238;2022-10-16T02:47:56;100273.94;;;15.35;100.00
19210;BME280;9738;51.654;14.238;2022-10-16T02:50:22;100274.97;;;15.34;100.00
19210;BME280;9738;51.654;14.238;2022-10-16T02:52:49;100273.09;;;15.35;100.00
19210;BME280;9738;51.654;14.238;2022-10-16T02:55:16;100276.44;;;15.37;100.00
19210;BME280;9738;51.654;14.238;2022-10-16T02:57:42;100277.06;;;15.39;100.00
19210;BME280;9738;51.654;14.238;2022-10-16T03:00:10;100273.19;;;15.41;100.00
19210;BME280;9738;51.654;14.238;2022-10-16T03:02:38;100277.06;;;15.39;100.00
19210;BME280;9738;51.654;14.238;2022-10-16T03:05:04;100276.63;;;15.35;100.00
19210;BME280;9738;51.654;14.238;2022-10-16T03:07:30;100270.84;;;15.38;100.00
19210;BME280;9738;51.654;14.238;2022-10-16T03:09:56;100279.13;;;15.37;100.00
19210;BME280;9738;51.654;14.238;2022-10-16T03:12:22;100279.31;;;15.35;100.00
19210;BME280;9738;51.654;14.238;2022-10-16T03:14:49;100274.97;;;15.34;100.00
19210;BME280;9738;51.654;14.238;2022-10-16T03:17:14;100265.22;;;15.33;100.00
19210;BME280;9738;51.654;14.238;2022-10-16T03:19:42;100277.47;;;15.36;100.00
19210;BME280;9738;51.654;14.238;2022-10-16T03:22:08;100287.59;;;15.34;100.00
19210;BME280;9738;51.654;14.238;2022-10-16T03:24:34;100292.78;;;15.35;100.00
19210;BME280;9738;51.654;14.238;2022-10-16T03:27:00;100288.59;;;15.33;100.00
19210;BME280;9738;51.654;14.238;2022-10-16T03:29:26;100287.09;;;15.30;100.00
19210;BME280;9738;51.654;14.238;2022-10-16T03:31:53;100297.03;;;15.30;100.00
19210;BME280;9738;51.654;14.238;2022-10-16T03:34:18;100294.34;;;15.30;100.00
19210;BME280;9738;51.654;14.238;2022-10-16T03:36:45;100288.97;;;15.30;100.00
19210;BME280;9738;51.654;14.238;2022-10-16T03:39:10;100286.47;;;15.28;100.00
19210;BME280;9738;51.654;14.238;2022-10-16T03:41:36;100284.81;;;15.27;100.00
19210;BME280;9738;51.654;14.238;2022-10-16T03:44:04;100285.63;;;15.28;100.00
19210;BME280;9738;51.654;14.238;2022-10-16T03:46:29;100296.84;;;15.31;100.00
19210;BME280;9738;51.654;14.238;2022-10-16T03:48:55;100303.06;;;15.32;100.00
19210;BME280;9738;51.654;14.238;2022-10-16T03:51:21;100312.44;;;15.36;100.00
19210;BME280;9738;51.654;14.238;2022-10-16T03:53:47;100315.78;;;15.38;100.00
19210;BME280;9738;51.654;14.238;2022-10-16T03:56:13;100315.13;;;15.36;100.00
19210;BME280;9738;51.654;14.238;2022-10-16T03:58:39;100318.94;;;15.41;100.00
19210;BME280;9738;51.654;14.238;2022-10-16T04:01:05;100329.53;;;15.43;100.00
19210;BME280;9738;51.654;14.238;2022-10-16T04:03:31;100331.38;;;15.43;100.00
19210;BME280;9738;51.654;14.238;2022-10-16T04:05:57;100330.53;;;15.42;100.00
19210;BME280;9738;51.654;14.238;2022-10-16T04:08:23;100330.53;;;15.42;100.00
19210;BME280;9738;51.654;14.238;2022-10-16T04:10:49;100331.72;;;15.39;100.00
19210;BME280;9738;51.654;14.238;2022-10-16T04:13:15;100336.28;;;15.39;100.00
19210;BME280;9738;51.654;14.238;2022-10-16T04:15:41;100321.44;;;15.43;100.00
19210;BME280;9738;51.654;14.238;2022-10-16T04:18:07;100328.13;;;15.47;100.00
19210;BME280;9738;51.654;14.238;2022-10-16T04:20:34;100341.00;;;15.52;100.00
19210;BME280;9738;51.654;14.238;2022-10-16T04:22:59;100340.66;;;15.55;100.00
19210;BME280;9738;51.654;14.238;2022-10-16T04:25:25;100353.28;;;15.54;100.00
19210;BME280;9738;51.654;14.238;2022-10-16T04:27:54;100340.19;;;15.51;100.00
19210;BME280;9738;51.654;14.238;2022-10-16T04:30:21;100344.53;;;15.52;100.00
19210;BME280;9738;51.654;14.238;2022-10-16T04:32:48;100345.56;;;15.51;100.00
19210;BME280;9738;51.654;14.238;2022-10-16T04:35:16;100350.94;;;15.51;100.00
19210;BME280;9738;51.654;14.238;2022-10-16T04:37:42;100349.28;;;15.50;100.00
19210;BME280;9738;51.654;14.238;2022-10-16T04:40:08;100345.56;;;15.51;100.00
19210;BME280;9738;51.654;14.238;2022-10-16T04:42:34;100344.09;;;15.49;100.00
19210;BME280;9738;51.654;14.238;2022-10-16T04:45:00;100343.25;;;15.48;100.00
19210;BME280;9738;51.654;14.238;2022-10-16T04:47:26;100345.31;;;15.46;100.00
19210;BME280;9738;51.654;14.238;2022-10-16T04:49:53;100329.53;;;15.43;100.00
19210;BME280;9738;51.654;14.238;2022-10-16T04:52:18;100334.25;;;15.41;100.00
19210;BME280;9738;51.654;14.238;2022-10-16T04:54:44;100334.81;;;15.36;100.00
19210;BME280;9738;51.654;14.238;2022-10-16T04:57:11;100332.84;;;15.30;100.00
19210;BME280;9738;51.654;14.238;2022-10-16T04:59:37;100338.44;;;15.29;100.00
19210;BME280;9738;51.654;14.238;2022-10-16T05:02:03;100343.13;;;15.27;100.00
19210;BME280;9738;51.654;14.238;2022-10-16T05:04:29;100348.53;;;15.27;100.00
19210;BME280;9738;51.654;14.238;2022-10-16T05:06:55;100349.19;;;15.29;100.00
19210;BME280;9738;51.654;14.238;2022-10-16T05:09:21;100341.13;;;15.29;100.00
19210;BME280;9738;51.654;14.238;2022-10-16T05:11:47;100351.88;;;15.29;100.00
19210;BME280;9738;51.654;14.238;2022-10-16T05:14:13;100348.06;;;15.23;100.00
19210;BME280;9738;51.654;14.238;2022-10-16T05:16:38;100347.88;;;15.25;100.00
19210;BME280;9738;51.654;14.238;2022-10-16T05:19:05;100340.28;;;15.28;100.00
19210;BME280;9738;51.654;14.238;2022-10-16T05:21:30;100349.09;;;15.37;100.00
19210;BME280;9738;51.654;14.238;2022-10-16T05:23:56;100341.31;;;15.42;100.00
19210;BME280;9738;51.654;14.238;2022-10-16T05:26:22;100355.78;;;15.41;100.00
19210;BME280;9738;51.654;14.238;2022-10-16T05:28:49;100359.84;;;15.37;100.00
19210;BME280;9738;51.654;14.238;2022-10-16T05:31:15;100371.75;;;15.28;100.00
19210;BME280;9738;51.654;14.238;2022-10-16T05:33:41;100363.81;;;15.26;100.00
19210;BME280;9738;51.654;14.238;2022-10-16T05:36:10;100374.13;;;15.23;100.00
19210;BME280;9738;51.654;14.238;2022-10-16T05:38:36;100381.91;;;15.18;100.00
19210;BME280;9738;51.654;14.238;2022-10-16T05:41:04;100369.84;;;15.13;100.00
19210;BME280;9738;51.654;14.238;2022-10-16T05:43:31;100380.97;;;15.10;100.00
19210;BME280;9738;51.654;14.238;2022-10-16T05:46:02;100376.81;;;15.08;100.00
19210;BME280;9738;51.654;14.238;2022-10-16T05:48:29;100375.94;;;15.07;100.00
19210;BME280;9738;51.654;14.238;2022-10-16T05:50:59;100374.66;;;15.03;100.00
19210;BME280;9738;51.654;14.238;2022-10-16T05:53:31;100378.00;;;15.05;100.00
19210;BME280;9738;51.654;14.238;2022-10-16T05:55:58;100384.41;;;15.04;100.00
19210;BME280;9738;51.654;14.238;2022-10-16T05:58:25;100380.16;;;15.10;100.00
19210;BME280;9738;51.654;14.238;2022-10-16T06:03:21;100397.75;;;15.12;100.00
19210;BME280;9738;51.654;14.238;2022-10-16T06:05:47;100411.50;;;15.18;100.00
19210;BME280;9738;51.654;14.238;2022-10-16T06:08:12;100413.09;;;15.27;100.00
19210;BME280;9738;51.654;14.238;2022-10-16T06:10:39;100417.75;;;15.33;100.00
19210;BME280;9738;51.654;14.238;2022-10-16T06:13:04;100422.25;;;15.40;100.00
19210;BME280;9738;51.654;14.238;2022-10-16T06:15:30;100424.34;;;15.45;100.00
19210;BME280;9738;51.654;14.238;2022-10-16T06:17:57;100421.66;;;15.45;100.00
19210;BME280;9738;51.654;14.238;2022-10-16T06:20:22;100420.84;;;15.45;100.00
19210;BME280;9738;51.654;14.238;2022-10-16T06:22:48;100431.59;;;15.45;100.00
19210;BME280;9738;51.654;14.238;2022-10-16T06:25:14;100430.13;;;15.42;100.00
19210;BME280;9738;51.654;14.238;2022-10-16T06:27:40;100435.84;;;15.39;100.00
19210;BME280;9738;51.654;14.238;2022-10-16T06:30:07;100437.44;;;15.33;100.00
19210;BME280;9738;51.654;14.238;2022-10-16T06:32:34;100428.69;;;15.31;100.00
19210;BME280;9738;51.654;14.238;2022-10-16T06:35:00;100431.09;;;15.26;100.00
19210;BME280;9738;51.654;14.238;2022-10-16T06:37:26;100435.84;;;15.24;100.00
19210;BME280;9738;51.654;14.238;2022-10-16T06:39:53;100435.72;;;15.18;100.00
19210;BME280;9738;51.654;14.238;2022-10-16T06:42:19;100436.09;;;15.14;100.00
19210;BME280;9738;51.654;14.238;2022-10-16T06:44:44;100437.09;;;15.13;100.00
19210;BME280;9738;51.654;14.238;2022-10-16T06:47:11;100438.13;;;15.12;100.00
19210;BME280;9738;51.654;14.238;2022-10-16T06:49:36;100439.63;;;15.15;100.00
19210;BME280;9738;51.654;14.238;2022-10-16T06:52:03;100448.53;;;15.16;100.00
19210;BME280;9738;51.654;14.238;2022-10-16T06:54:29;100437.38;;;15.19;100.00
19210;BME280;9738;51.654;14.238;2022-10-16T06:56:55;100445.13;;;15.22;100.00
19210;BME280;9738;51.654;14.238;2022-10-16T06:59:21;100447.09;;;15.28;100.00
19210;BME280;9738;51.654;14.238;2022-10-16T07:01:48;100447.19;;;15.34;100.00
19210;BME280;9738;51.654;14.238;2022-10-16T07:04:14;100444.41;;;15.43;100.00
19210;BME280;9738;51.654;14.238;2022-10-16T07:06:40;100460.19;;;15.46;100.00
19210;BME280;9738;51.654;14.238;2022-10-16T07:09:09;100457.59;;;15.52;100.00
19210;BME280;9738;51.654;14.238;2022-10-16T07:11:36;100458.56;;;15.59;100.00
19210;BME280;9738;51.654;14.238;2022-10-16T07:14:02;100473.63;;;15.68;100.00
19210;BME280;9738;51.654;14.238;2022-10-16T07:16:30;100467.53;;;15.75;100.00
19210;BME280;9738;51.654;14.238;2022-10-16T07:18:59;100464.56;;;15.84;100.00
19210;BME280;9738;51.654;14.238;2022-10-16T07:21:33;100461.69;;;16.01;100.00
19210;BME280;9738;51.654;14.238;2022-10-16T07:24:05;100466.06;;;16.16;100.00
19210;BME280;9738;51.654;14.238;2022-10-16T07:26:34;100470.19;;;16.34;100.00
19210;BME280;9738;51.654;14.238;2022-10-16T07:29:00;100477.06;;;16.51;100.00
19210;BME280;9738;51.654;14.238;2022-10-16T07:31:27;100475.09;;;16.74;100.00
19210;BME280;9738;51.654;14.238;2022-10-16T07:33:53;100468.16;;;16.87;100.00
19210;BME280;9738;51.654;14.238;2022-10-16T07:36:20;100471.63;;;17.02;100.00
19210;BME280;9738;51.654;14.238;2022-10-16T07:38:47;100474.09;;;17.18;100.00
19210;BME280;9738;51.654;14.238;2022-10-16T07:41:15;100482.66;;;17.28;100.00
19210;BME280;9738;51.654;14.238;2022-10-16T07:43:46;100482.16;;;17.40;100.00
19210;BME280;9738;51.654;14.238;2022-10-16T07:46:13;100491.78;;;17.49;100.00
19210;BME280;9738;51.654;14.238;2022-10-16T07:48:40;100485.78;;;17.53;100.00
19210;BME280;9738;51.654;14.238;2022-10-16T07:51:07;100499.81;;;17.64;100.00
19210;BME280;9738;51.654;14.238;2022-10-16T07:53:33;100488.81;;;17.65;100.00
19210;BME280;9738;51.654;14.238;2022-10-16T07:56:01;100495.66;;;17.68;100.00
19210;BME280;9738;51.654;14.238;2022-10-16T07:58:28;100498.31;;;17.61;100.00
19210;BME280;9738;51.654;14.238;2022-10-16T08:00:55;100499.81;;;17.64;100.00
19210;BME280;9738;51.654;14.238;2022-10-16T08:03:20;100509.00;;;17.69;100.00
19210;BME280;9738;51.654;14.238;2022-10-16T08:05:46;100504.50;;;17.76;100.00
19210;BME280;9738;51.654;14.238;2022-10-16T08:08:14;100507.84;;;17.78;100.00
19210;BME280;9738;51.654;14.238;2022-10-16T08:10:40;100513.53;;;17.90;100.00
19210;BME280;9738;51.654;14.238;2022-10-16T08:13:06;100523.34;;;17.98;100.00
19210;BME280;9738;51.654;14.238;2022-10-16T08:15:33;100531.16;;;18.14;100.00
19210;BME280;9738;51.654;14.238;2022-10-16T08:18:03;100521.84;;;18.23;100.00
19210;BME280;9738;51.654;14.238;2022-10-16T08:20:30;100526.28;;;18.37;100.00
19210;BME280;9738;51.654;14.238;2022-10-16T08:22:59;100521.75;;;18.45;100.00
19210;BME280;9738;51.654;14.238;2022-10-16T08:25:25;100526.69;;;18.34;100.00
19210;BME280;9738;51.654;14.238;2022-10-16T08:27:51;100526.75;;;18.41;100.00
19210;BME280;9738;51.654;14.238;2022-10-16T08:30:19;100535.69;;;18.42;100.00
19210;BME280;9738;51.654;14.238;2022-10-16T08:32:45;100542.16;;;18.47;100.00
19210;BME280;9738;51.654;14.238;2022-10-16T08:35:12;100529.94;;;18.58;100.00
19210;BME280;9738;51.654;14.238;2022-10-16T08:37:38;100530.22;;;18.70;100.00
19210;BME280;9738;51.654;14.238;2022-10-16T08:40:07;100528.34;;;18.70;100.00
19210;BME280;9738;51.654;14.238;2022-10-16T08:42:44;100528.81;;;18.87;100.00
19210;BME280;9738;51.654;14.238;2022-10-16T08:45:26;100534.13;;;19.15;100.00
19210;BME280;9738;51.654;14.238;2022-10-16T08:48:05;100528.53;;;19.30;100.00
19210;BME280;9738;51.654;14.238;2022-10-16T08:50:37;100535.16;;;19.27;100.00
19210;BME280;9738;51.654;14.238;2022-10-16T08:53:04;100534.97;;;19.22;100.00
19210;BME280;9738;51.654;14.238;2022-10-16T08:55:50;100531.44;;;19.22;100.00
19210;BME280;9738;51.654;14.238;2022-10-16T08:58:22;100523.72;;;19.18;100.00
19210;BME280;9738;51.654;14.238;2022-10-16T09:00:53;100515.34;;;19.13;100.00
19210;BME280;9738;51.654;14.238;2022-10-16T09:12:10;100548.31;;;19.43;100.00
19210;BME280;9738;51.654;14.238;2022-10-16T09:15:03;100551.25;;;19.49;100.00
19210;BME280;9738;51.654;14.238;2022-10-16T09:20:26;100551.50;;;19.60;100.00
19210;BME280;9738;51.654;14.238;2022-10-16T09:23:26;100555.66;;;19.63;100.00
19210;BME280;9738;51.654;14.238;2022-10-16T09:25:55;100567.09;;;19.52;100.00
19210;BME280;9738;51.654;14.238;2022-10-16T09:28:21;100568.13;;;19.51;100.00
19210;BME280;9738;51.654;14.238;2022-10-16T09:30:47;100565.63;;;19.56;100.00
19210;BME280;9738;51.654;14.238;2022-10-16T09:33:19;100560.22;;;19.49;100.00
19210;BME280;9738;51.654;14.238;2022-10-16T09:35:49;100571.03;;;19.42;100.00
19210;BME280;9738;51.654;14.238;2022-10-16T09:38:29;100578.56;;;19.40;100.00
19210;BME280;9738;51.654;14.238;2022-10-16T09:40:56;100576.47;;;19.42;100.00
19210;BME280;9738;51.654;14.238;2022-10-16T09:43:48;100578.94;;;19.44;100.00
19210;BME280;9738;51.654;14.238;2022-10-16T09:46:30;100578.34;;;19.42;100.00
19210;BME280;9738;51.654;14.238;2022-10-16T09:48:58;100588.97;;;19.43;100.00
19210;BME280;9738;51.654;14.238;2022-10-16T09:54:13;100596.50;;;19.55;100.00
19210;BME280;9738;51.654;14.238;2022-10-16T09:56:39;100597.31;;;19.55;100.00
19210;BME280;9738;51.654;14.238;2022-10-16T09:59:13;100588.75;;;19.52;100.00
19210;BME280;9738;51.654;14.238;2022-10-16T10:02:10;100590.22;;;19.48;100.00
19210;BME280;9738;51.654;14.238;2022-10-16T10:04:41;100594.38;;;19.50;100.00
19210;BME280;9738;51.654;14.238;2022-10-16T10:07:30;100597.72;;;19.52;100.00
19210;BME280;9738;51.654;14.238;2022-10-16T10:10:02;100602.16;;;19.60;100.00
19210;BME280;9738;51.654;14.238;2022-10-16T10:12:30;100599.63;;;19.65;100.00
19210;BME280;9738;51.654;14.238;2022-10-16T10:15:03;100609.84;;;19.63;100.00
19210;BME280;9738;51.654;14.238;2022-10-16T10:17:30;100614.03;;;19.65;100.00
19210;BME280;9738;51.654;14.238;2022-10-16T10:20:01;100601.75;;;19.69;100.00
19210;BME280;9738;51.654;14.238;2022-10-16T10:22:43;100598.81;;;19.71;100.00
19210;BME280;9738;51.654;14.238;2022-10-16T10:28:07;100593.81;;;19.68;100.00
19210;BME280;9738;51.654;14.238;2022-10-16T10:36:37;100597.75;;;19.72;100.00
19210;BME280;9738;51.654;14.238;2022-10-16T10:39:25;100610.31;;;19.73;100.00
19210;BME280;9738;51.654;14.238;2022-10-16T10:42:20;100613.41;;;19.83;100.00
19210;BME280;9738;51.654;14.238;2022-10-16T10:47:58;100617.41;;;20.01;100.00
19210;BME280;9738;51.654;14.238;2022-10-16T10:50:39;100621.16;;;20.06;100.00
19210;BME280;9738;51.654;14.238;2022-10-16T10:53:17;100619.88;;;20.09;100.00
19210;BME280;9738;51.654;14.238;2022-10-16T10:58:50;100622.19;;;20.25;100.00
19210;BME280;9738;51.654;14.238;2022-10-16T11:01:37;100618.84;;;20.36;100.00
19210;BME280;9738;51.654;14.238;2022-10-16T11:07:18;100615.91;;;20.44;100.00
19210;BME280;9738;51.654;14.238;2022-10-16T11:09:49;100615.31;;;20.49;100.00
19210;BME280;9738;51.654;14.238;2022-10-16T11:12:30;100614.22;;;20.57;100.00
19210;BME280;9738;51.654;14.238;2022-10-16T11:15:28;100612.97;;;20.52;100.00
19210;BME280;9738;51.654;14.238;2022-10-16T11:19:02;100620.28;;;20.39;100.00
19210;BME280;9738;51.654;14.238;2022-10-16T11:21:05;100616.13;;;20.30;100.00
19210;BME280;9738;51.654;14.238;2022-10-16T11:23:39;100625.31;;;20.22;100.00
19210;BME280;9738;51.654;14.238;2022-10-16T11:26:13;100618.22;;;20.21;100.00
19210;BME280;9738;51.654;14.238;2022-10-16T11:28:50;100618.63;;;20.24;100.00
19210;BME280;9738;51.654;14.238;2022-10-16T11:31:36;100619.69;;;20.23;100.00
19210;BME280;9738;51.654;14.238;2022-10-16T11:34:17;100614.88;;;20.32;100.00
19210;BME280;9738;51.654;14.238;2022-10-16T11:39:31;100632.81;;;20.46;100.00
19210;BME280;9738;51.654;14.238;2022-10-16T11:42:11;100625.72;;;20.45;100.00
19210;BME280;9738;51.654;14.238;2022-10-16T11:47:30;100632.41;;;20.56;100.00
19210;BME280;9738;51.654;14.238;2022-10-16T11:50:00;100632.78;;;20.60;100.00
19210;BME280;9738;51.654;14.238;2022-10-16T11:52:36;100636.31;;;20.67;100.00
19210;BME280;9738;51.654;14.238;2022-10-16T11:55:14;100636.97;;;20.62;100.00
19210;BME280;9738;51.654;14.238;2022-10-16T11:57:54;100632.19;;;20.58;100.00
19210;BME280;9738;51.654;14.238;2022-10-16T12:00:28;100634.28;;;20.56;100.00
19210;BME280;9738;51.654;14.238;2022-10-16T12:03:17;100631.38;;;20.50;100.00
19210;BME280;9738;51.654;14.238;2022-10-16T12:08:33;100635.94;;;20.43;100.00
19210;BME280;9738;51.654;14.238;2022-10-16T12:16:31;100633.44;;;20.48;100.00
19210;BME280;9738;51.654;14.238;2022-10-16T12:19:15;100625.09;;;20.50;100.00
19210;BME280;9738;51.654;14.238;2022-10-16T12:21:43;100626.53;;;20.52;100.00
19210;BME280;9738;51.654;14.238;2022-10-16T12:24:21;100632.41;;;20.56;100.00
19210;BME280;9738;51.654;14.238;2022-10-16T12:26:51;100631.97;;;20.59;100.00
19210;BME280;9738;51.654;14.238;2022-10-16T12:29:33;100635.94;;;20.57;100.00
19210;BME280;9738;51.654;14.238;2022-10-16T12:32:04;100634.44;;;20.61;100.00
19210;BME280;9738;51.654;14.238;2022-10-16T12:34:39;100643.84;;;20.65;100.00
19210;BME280;9738;51.654;14.238;2022-10-16T12:37:20;100645.72;;;20.71;100.00
19210;BME280;9738;51.654;14.238;2022-10-16T12:39:48;100629.00;;;20.81;100.00
19210;BME280;9738;51.654;14.238;2022-10-16T12:42:32;100639.19;;;20.85;100.00
19210;BME280;9738;51.654;14.238;2022-10-16T12:44:59;100647.31;;;20.92;100.00
19210;BME280;9738;51.654;14.238;2022-10-16T12:49:58;100644.81;;;20.90;100.00
19210;BME280;9738;51.654;14.238;2022-10-16T12:55:00;100656.50;;;20.97;100.00
19210;BME280;9738;51.654;14.238;2022-10-16T13:00:22;100667.56;;;20.96;100.00
19210;BME280;9738;51.654;14.238;2022-10-16T13:05:46;100674.88;;;20.95;100.00
19210;BME280;9738;51.654;14.238;2022-10-16T13:08:37;100679.06;;;20.91;100.00
19210;BME280;9738;51.654;14.238;2022-10-16T13:11:37;100682.84;;;20.90;100.00
19210;BME280;9738;51.654;14.238;2022-10-16T13:19:47;100686.59;;;20.89;100.00
19210;BME280;9738;51.654;14.238;2022-10-16T13:22:29;100693.72;;;20.84;100.00
19210;BME280;9738;51.654;14.238;2022-10-16T13:25:18;100690.38;;;20.82;100.00
19210;BME280;9738;51.654;14.238;2022-10-16T13:28:06;100689.97;;;20.78;100.00
19210;BME280;9738;51.654;14.238;2022-10-16T13:30:42;100693.28;;;20.80;100.00
19210;BME280;9738;51.654;14.238;2022-10-16T13:35:36;100692.28;;;20.81;100.00
19210;BME280;9738;51.654;14.238;2022-10-16T13:38:17;100694.97;;;20.81;100.00
19210;BME280;9738;51.654;14.238;2022-10-16T13:43:26;100692.03;;;20.89;100.00
19210;BME280;9738;51.654;14.238;2022-10-16T13:45:58;100686.38;;;20.91;100.00
19210;BME280;9738;51.654;14.238;2022-10-16T13:48:25;100690.13;;;20.96;100.00
19210;BME280;9738;51.654;14.238;2022-10-16T13:51:02;100683.63;;;21.04;100.00
19210;BME280;9738;51.654;14.238;2022-10-16T13:53:31;100684.25;;;21.13;100.00
19210;BME280;9738;51.654;14.238;2022-10-16T13:55:58;100688.19;;;21.17;100.00
19210;BME280;9738;51.654;14.238;2022-10-16T13:58:25;100693.19;;;21.20;100.00
19210;BME280;9738;51.654;14.238;2022-10-16T14:00:57;100691.91;;;21.22;100.00
19210;BME280;9738;51.654;14.238;2022-10-16T14:03:24;100697.13;;;21.24;100.00
19210;BME280;9738;51.654;14.238;2022-10-16T14:05:55;100699.84;;;21.24;100.00
19210;BME280;9738;51.654;14.238;2022-10-16T14:08:24;100707.59;;;21.27;100.00
19210;BME280;9738;51.654;14.238;2022-10-16T14:10:54;100707.38;;;21.35;100.00
19210;BME280;9738;51.654;14.238;2022-10-16T14:13:29;100706.50;;;21.41;100.00
19210;BME280;9738;51.654;14.238;2022-10-16T14:15:56;100711.69;;;21.49;100.00